createdAt,value
2022-08-22T00:01:32.270Z,99893.67
2022-08-22T00:02:48.495Z,99889.90
2022-08-22T00:02:59.281Z,99881.86
2022-08-22T00:04:34.405Z,99893.05
2022-08-22T00:07:03.384Z,99895.40
2022-08-22T00:10:02.485Z,99898.52
2022-08-22T00:12:40.763Z,99898.89
2022-08-22T00:15:42.123Z,99900.30
2022-08-22T00:18:20.125Z,99900.81
2022-08-22T00:21:08.510Z,99901.42
2022-08-22T00:23:56.503Z,99903.16
2022-08-22T00:26:24.488Z,99904.96
2022-08-22T00:29:07.891Z,99908.52
2022-08-22T00:31:41.250Z,99907.89
2022-08-22T00:34:14.712Z,99908.55
2022-08-22T00:37:03.805Z,99908.56
2022-08-22T00:39:45.726Z,99908.04
2022-08-22T00:42:35.456Z,99914.13
2022-08-22T00:45:38.451Z,99912.13
2022-08-22T00:48:22.275Z,99911.51
2022-08-22T00:51:16.540Z,99906.51
2022-08-22T00:53:59.208Z,99912.41
2022-08-22T00:56:27.132Z,99906.15
2022-08-22T00:59:11.982Z,99908.91
2022-08-22T01:02:02.015Z,99904.83
2022-08-22T01:04:40.542Z,99912.98
2022-08-22T01:07:20.256Z,99913.83
2022-08-22T01:10:19.378Z,99913.92
2022-08-22T01:13:20.952Z,99915.65
2022-08-22T01:15:53.756Z,99912.56
2022-08-22T01:19:12.881Z,99912.91
2022-08-22T01:22:02.722Z,99917.11
2022-08-22T01:25:07.926Z,99917.19
2022-08-22T01:28:14.422Z,99919.95
2022-08-22T01:31:01.021Z,99922.36
2022-08-22T01:34:15.278Z,99927.19
2022-08-22T01:37:02.115Z,99927.23
2022-08-22T01:40:18.070Z,99924.72
2022-08-22T01:43:15.965Z,99925.84
2022-08-22T01:45:52.712Z,99928.42
2022-08-22T01:48:32.037Z,99928.42
2022-08-22T01:51:26.192Z,99924.01
2022-08-22T01:54:32.670Z,99927.41
2022-08-22T01:57:08.136Z,99925.11
2022-08-22T01:59:42.375Z,99920.70
2022-08-22T02:02:30.216Z,99919.45
2022-08-22T02:05:24.037Z,99920.17
2022-08-22T02:07:56.828Z,99920.61
2022-08-22T02:11:01.869Z,99917.48
2022-08-22T02:13:32.972Z,99917.45
2022-08-22T02:16:13.025Z,99921.45
2022-08-22T02:18:57.075Z,99922.41
2022-08-22T02:21:40.918Z,99924.38
2022-08-22T02:24:33.550Z,99923.08
2022-08-22T02:27:22.706Z,99919.90
2022-08-22T02:30:03.629Z,99922.16
2022-08-22T02:32:41.149Z,99922.58
2022-08-22T02:35:33.716Z,99922.70
2022-08-22T02:38:19.737Z,99927.09
2022-08-22T02:41:07.674Z,99925.02
2022-08-22T02:44:02.450Z,99925.45
2022-08-22T02:46:51.894Z,99922.67
2022-08-22T02:49:27.481Z,99926.40
2022-08-22T02:52:19.315Z,99926.16
2022-08-22T02:55:35.469Z,99926.27
2022-08-22T02:58:21.347Z,99934.50
2022-08-22T03:01:13.333Z,99941.17
2022-08-22T03:03:46.014Z,99942.80
2022-08-22T03:06:38.499Z,99946.56
2022-08-22T03:09:15.360Z,99947.09
2022-08-22T03:11:49.497Z,99951.94
2022-08-22T03:14:48.634Z,99947.16
2022-08-22T03:17:52.685Z,99947.09
2022-08-22T03:20:45.978Z,99949.16
2022-08-22T03:23:31.663Z,99949.29
2022-08-22T03:26:25.374Z,99946.11
2022-08-22T03:29:01.574Z,99946.33
2022-08-22T03:31:32.031Z,99952.10
2022-08-22T03:34:27.334Z,99953.48
2022-08-22T03:37:21.239Z,99953.44
2022-08-22T03:40:02.895Z,99952.28
2022-08-22T03:43:00.196Z,99954.08
2022-08-22T03:45:53.097Z,99949.38
2022-08-22T03:48:51.044Z,99947.67
2022-08-22T03:51:33.810Z,99946.56
2022-08-22T03:54:22.085Z,99952.53
2022-08-22T03:57:14.936Z,99953.36
2022-08-22T03:59:55.970Z,99959.66
2022-08-22T04:03:07.965Z,99967.98
2022-08-22T04:06:13.634Z,99974.68
2022-08-22T04:08:50.621Z,99978.98
2022-08-22T04:12:00.769Z,99980.40
2022-08-22T04:14:42.366Z,99978.62
2022-08-22T04:17:41.325Z,99980.41
2022-08-22T04:20:09.805Z,99981.65
2022-08-22T04:23:14.296Z,99984.43
2022-08-22T04:26:12.285Z,99989.33
2022-08-22T04:28:51.082Z,99984.41
2022-08-22T04:31:28.122Z,99982.79
2022-08-22T04:34:15.774Z,99984.27
2022-08-22T04:36:50.811Z,99985.91
2022-08-22T04:39:28.266Z,99988.44
2022-08-22T04:42:32.575Z,99985.77
2022-08-22T04:45:05.994Z,99988.64
2022-08-22T04:47:46.047Z,99992.98
2022-08-22T04:50:29.628Z,100000.59
2022-08-22T04:53:27.531Z,100007.16
2022-08-22T04:56:17.414Z,100008.20
2022-08-22T04:59:05.356Z,100007.14
2022-08-22T05:01:44.536Z,100006.89
2022-08-22T05:04:23.914Z,100005.61
2022-08-22T05:07:00.083Z,100005.20
2022-08-22T05:09:33.315Z,100003.61
2022-08-22T05:12:09.283Z,100002.00
2022-08-22T05:14:43.048Z,100006.52
2022-08-22T05:17:16.995Z,100007.65
2022-08-22T05:19:53.814Z,100010.64
2022-08-22T05:22:28.728Z,100009.30
2022-08-22T05:25:11.678Z,100014.17
2022-08-22T05:27:45.490Z,100014.83
2022-08-22T05:30:22.250Z,100019.33
2022-08-22T05:33:04.651Z,100022.09
2022-08-22T05:35:58.073Z,100025.03
2022-08-22T05:38:35.198Z,100032.34
2022-08-22T05:41:10.951Z,100037.85
2022-08-22T05:43:43.338Z,100036.62
2022-08-22T05:46:43.606Z,100039.39
2022-08-22T05:49:37.425Z,100038.33
2022-08-22T05:52:30.170Z,100040.68
2022-08-22T05:55:26.402Z,100041.27
2022-08-22T05:58:15.075Z,100042.09
2022-08-22T06:00:48.876Z,100037.23
2022-08-22T06:03:34.033Z,100037.02
2022-08-22T06:06:13.787Z,100041.48
2022-08-22T06:09:05.938Z,100043.80
2022-08-22T06:12:00.107Z,100042.00
2022-08-22T06:14:42.848Z,100047.61
2022-08-22T06:17:17.316Z,100049.98
2022-08-22T06:19:48.827Z,100049.84
2022-08-22T06:22:25.425Z,100050.09
2022-08-22T06:24:57.415Z,100050.20
2022-08-22T06:27:31.110Z,100045.48
2022-08-22T06:30:04.139Z,100046.89
2022-08-22T06:32:58.435Z,100048.41
2022-08-22T06:36:26.164Z,100045.88
2022-08-22T06:39:05.965Z,100051.77
2022-08-22T06:41:39.896Z,100045.61
2022-08-22T06:44:10.454Z,100044.16
2022-08-22T06:46:39.436Z,100045.03
2022-08-22T06:49:09.893Z,100045.21
2022-08-22T06:51:39.499Z,100051.65
2022-08-22T06:54:17.174Z,100043.90
2022-08-22T06:56:50.295Z,100046.43
2022-08-22T06:59:24.126Z,100046.50
2022-08-22T07:01:55.026Z,100048.12
2022-08-22T07:04:26.911Z,100047.55
2022-08-22T07:06:59.335Z,100052.10
2022-08-22T07:09:40.260Z,100051.76
2022-08-22T07:12:19.794Z,100055.15
2022-08-22T07:14:51.557Z,100062.55
2022-08-22T07:17:37.846Z,100059.91
2022-08-22T07:20:28.780Z,100061.03
2022-08-22T07:23:05.728Z,100060.48
2022-08-22T07:26:09.296Z,100065.96
2022-08-22T07:28:51.186Z,100068.04
2022-08-22T07:31:33.652Z,100074.33
2022-08-22T07:34:44.899Z,100077.70
2022-08-22T07:37:18.426Z,100076.86
2022-08-22T07:40:03.707Z,100076.39
2022-08-22T07:43:01.659Z,100081.59
2022-08-22T07:45:49.588Z,100075.69
2022-08-22T07:48:29.865Z,100074.20
2022-08-22T07:51:02.955Z,100078.81
2022-08-22T07:53:36.660Z,100084.77
2022-08-22T07:56:08.201Z,100087.06
2022-08-22T07:58:39.784Z,100089.18
2022-08-22T08:01:17.112Z,100091.18
2022-08-22T08:03:53.455Z,100090.54
2022-08-22T08:06:24.898Z,100095.94
2022-08-22T08:08:54.534Z,100092.95
2022-08-22T08:11:26.242Z,100091.84
2022-08-22T08:14:00.895Z,100089.41
2022-08-22T08:16:34.679Z,100089.15
2022-08-22T08:19:03.235Z,100089.14
2022-08-22T08:21:37.631Z,100093.73
2022-08-22T08:24:09.088Z,100093.30
2022-08-22T08:27:04.014Z,100091.11
2022-08-22T08:29:33.625Z,100097.82
2022-08-22T08:32:02.395Z,100094.70
2022-08-22T08:34:35.240Z,100093.71
2022-08-22T08:37:15.219Z,100092.59
2022-08-22T08:39:50.037Z,100094.65
2022-08-22T08:42:59.595Z,100091.20
2022-08-22T08:45:36.389Z,100085.36
2022-08-22T08:48:38.975Z,100088.12
2022-08-22T08:51:51.155Z,100093.84
2022-08-22T08:54:51.942Z,100095.21
2022-08-22T08:57:45.583Z,100091.35
2022-08-22T09:00:40.925Z,100088.06
2022-08-22T09:03:27.330Z,100087.86
2022-08-22T09:06:05.885Z,100089.97
2022-08-22T09:08:55.548Z,100084.59
2022-08-22T09:11:36.059Z,100082.73
2022-08-22T09:14:41.105Z,100085.27
2022-08-22T09:17:30.976Z,100079.47
2022-08-22T09:20:25.015Z,100083.20
2022-08-22T09:22:56.615Z,100085.03
2022-08-22T09:25:38.566Z,100084.52
2022-08-22T09:28:18.349Z,100090.59
2022-08-22T09:31:16.606Z,100091.23
2022-08-22T09:34:01.597Z,100091.48
2022-08-22T09:37:02.907Z,100093.94
2022-08-22T09:39:42.821Z,100094.64
2022-08-22T09:42:34.200Z,100081.57
2022-08-22T09:45:30.719Z,100080.48
2022-08-22T09:48:07.770Z,100079.01
2022-08-22T09:50:38.614Z,100086.54
2022-08-22T09:53:11.090Z,100085.35
2022-08-22T09:56:01.370Z,100083.17
2022-08-22T09:59:05.164Z,100081.95
2022-08-22T10:01:48.364Z,100081.36
2022-08-22T10:04:39.349Z,100081.68
2022-08-22T10:07:34.949Z,100076.11
2022-08-22T10:10:26.250Z,100076.39
2022-08-22T10:12:57.403Z,100071.09
2022-08-22T10:16:09.015Z,100067.52
2022-08-22T10:18:53.900Z,100069.89
2022-08-22T10:21:38.377Z,100073.45
2022-08-22T10:24:36.434Z,100072.44
2022-08-22T10:27:37.444Z,100069.96
2022-08-22T10:30:17.890Z,100078.25
2022-08-22T10:33:05.307Z,100080.67
2022-08-22T10:35:59.324Z,100082.91
2022-08-22T10:38:46.119Z,100077.42
2022-08-22T10:41:22.551Z,100076.59
2022-08-22T10:44:01.042Z,100078.80
2022-08-22T10:46:59.078Z,100075.59
2022-08-22T10:49:54.361Z,100081.08
2022-08-22T10:52:32.194Z,100082.89
2022-08-22T10:55:13.006Z,100083.06
2022-08-22T10:57:52.827Z,100085.16
2022-08-22T11:00:50.306Z,100086.45
2022-08-22T11:03:25.958Z,100088.14
2022-08-22T11:05:59.855Z,100085.31
2022-08-22T11:08:34.933Z,100082.02
2022-08-22T11:11:34.463Z,100082.75
2022-08-22T11:14:39.708Z,100078.44
2022-08-22T11:17:31.110Z,100079.84
2022-08-22T11:20:19.814Z,100087.20
2022-08-22T11:22:55.672Z,100087.73
2022-08-22T11:25:38.842Z,100089.73
2022-08-22T11:28:19.971Z,100084.88
2022-08-22T11:31:20.762Z,100090.16
2022-08-22T11:34:03.679Z,100096.71
2022-08-22T11:36:40.362Z,100091.99
2022-08-22T11:39:24.044Z,100087.80
2022-08-22T11:42:13.725Z,100087.87
2022-08-22T11:44:50.684Z,100082.98
2022-08-22T11:47:24.194Z,100081.89
2022-08-22T11:50:35.183Z,100086.73
2022-08-22T11:53:34.494Z,100089.64
2022-08-22T11:56:59.975Z,100087.05
2022-08-22T11:59:55.713Z,100089.80
2022-08-22T12:02:41.954Z,100088.63
2022-08-22T12:05:26.135Z,100086.59
2022-08-22T12:08:05.518Z,100089.15
2022-08-22T12:10:47.328Z,100090.81
2022-08-22T12:13:40.445Z,100094.70
2022-08-22T12:16:37.245Z,100092.35
2022-08-22T12:19:48.890Z,100092.52
2022-08-22T12:22:57.897Z,100089.47
2022-08-22T12:25:44.489Z,100085.70
2022-08-22T12:28:48.459Z,100087.01
2022-08-22T12:31:38.314Z,100085.36
2022-08-22T12:34:44.677Z,100086.63
2022-08-22T12:37:25.619Z,100078.02
2022-08-22T12:40:12.159Z,100083.02
2022-08-22T12:42:43.934Z,100080.98
2022-08-22T12:46:05.816Z,100081.90
2022-08-22T12:48:54.771Z,100079.20
2022-08-22T12:52:12.282Z,100075.86
2022-08-22T12:55:25.810Z,100070.09
2022-08-22T12:58:12.288Z,100072.20
2022-08-22T13:00:45.402Z,100070.34
2022-08-22T13:03:35.675Z,100073.85
2022-08-22T13:06:35.805Z,100074.50
2022-08-22T13:09:28.938Z,100073.42
2022-08-22T13:12:51.050Z,100073.34
2022-08-22T13:15:22.139Z,100076.05
2022-08-22T13:17:52.756Z,100073.70
2022-08-22T13:20:37.080Z,100071.84
2022-08-22T13:23:28.629Z,100071.40
2022-08-22T13:26:31.669Z,100070.52
2022-08-22T13:29:39.324Z,100073.56
2022-08-22T13:32:23.689Z,100076.81
2022-08-22T13:34:57.005Z,100076.98
2022-08-22T13:37:31.917Z,100080.27
2022-08-22T13:40:04.861Z,100080.48
2022-08-22T13:42:41.177Z,100077.76
2022-08-22T13:45:22.685Z,100077.98
2022-08-22T13:47:57.637Z,100076.27
2022-08-22T13:50:30.125Z,100070.70
2022-08-22T13:53:36.278Z,100072.94
2022-08-22T13:56:18.106Z,100069.45
2022-08-22T13:58:55.955Z,100067.43
2022-08-22T14:01:38.071Z,100068.56
2022-08-22T14:04:30.934Z,100066.32
2022-08-22T14:07:04.573Z,100062.34
2022-08-22T14:09:53.310Z,100059.02
2022-08-22T14:12:51.100Z,100054.58
2022-08-22T14:15:32.140Z,100047.48
2022-08-22T14:18:13.975Z,100047.78
2022-08-22T14:20:44.779Z,100046.52
2022-08-22T14:23:34.426Z,100049.01
2022-08-22T14:26:02.781Z,100044.78
2022-08-22T14:28:35.817Z,100043.68
2022-08-22T14:31:08.735Z,100041.38
2022-08-22T14:33:43.825Z,100040.88
2022-08-22T14:36:36.250Z,100037.39
2022-08-22T14:39:16.853Z,100044.05
2022-08-22T14:41:58.656Z,100039.94
2022-08-22T14:44:36.971Z,100036.51
2022-08-22T14:47:43.235Z,100037.63
2022-08-22T14:50:11.289Z,100035.31
2022-08-22T14:52:43.728Z,100035.57
2022-08-22T14:55:26.416Z,100032.36
2022-08-22T14:58:05.954Z,100031.49
2022-08-22T15:00:38.617Z,100032.36
2022-08-22T15:03:29.135Z,100031.38
2022-08-22T15:06:03.631Z,100028.15
2022-08-22T15:08:42.335Z,100028.86
2022-08-22T15:11:17.297Z,100027.25
2022-08-22T15:14:13.683Z,100025.95
2022-08-22T15:17:00.968Z,100021.20
2022-08-22T15:19:41.014Z,100021.18
2022-08-22T15:22:25.773Z,100025.20
2022-08-22T15:25:20.024Z,100025.86
2022-08-22T15:27:59.509Z,100023.55
2022-08-22T15:30:44.310Z,100027.64
2022-08-22T15:33:15.778Z,100029.90
2022-08-22T15:35:46.539Z,100023.92
2022-08-22T15:38:27.812Z,100021.06
2022-08-22T15:41:16.858Z,100022.23
2022-08-22T15:43:54.304Z,100018.70
2022-08-22T15:46:44.062Z,100017.09
2022-08-22T15:49:26.065Z,100017.98
2022-08-22T15:52:03.193Z,100016.42
2022-08-22T15:54:38.910Z,100018.94
2022-08-22T15:57:17.755Z,100013.24
2022-08-22T15:59:53.877Z,100011.69
2022-08-22T16:02:41.088Z,100009.96
2022-08-22T16:05:08.998Z,100010.41
2022-08-22T16:07:43.958Z,100009.84
2022-08-22T16:10:23.986Z,100003.59
2022-08-22T16:13:37.995Z,100005.12
2022-08-22T16:16:12.644Z,100007.07
2022-08-22T16:18:40.487Z,100002.35
2022-08-22T16:21:17.725Z,100005.52
2022-08-22T16:23:56.519Z,100007.69
2022-08-22T16:26:30.478Z,100011.74
2022-08-22T16:29:14.785Z,100011.61
2022-08-22T16:31:48.794Z,100013.01
2022-08-22T16:34:16.838Z,100012.70
2022-08-22T16:37:11.007Z,100021.16
2022-08-22T16:40:01.990Z,100015.99
2022-08-22T16:43:14.216Z,100017.47
2022-08-22T16:45:48.860Z,100022.66
2022-08-22T16:48:45.833Z,100024.20
2022-08-22T16:51:18.995Z,100023.43
2022-08-22T16:54:11.827Z,100024.02
2022-08-22T16:57:14.654Z,100026.78
2022-08-22T16:59:52.840Z,100027.14
2022-08-22T17:02:49.767Z,100025.69
2022-08-22T17:05:30.307Z,100023.73
2022-08-22T17:08:35.784Z,100024.36
2022-08-22T17:11:06.870Z,100031.88
2022-08-22T17:13:56.294Z,100029.21
2022-08-22T17:16:54.123Z,100031.05
2022-08-22T17:20:00.843Z,100032.19
2022-08-22T17:22:33.009Z,100033.92
2022-08-22T17:25:40.604Z,100040.17
2022-08-22T17:28:30.086Z,100044.58
2022-08-22T17:31:24.776Z,100046.34
2022-08-22T17:34:15.380Z,100048.90
2022-08-22T17:36:53.793Z,100048.55
2022-08-22T17:39:55.973Z,100048.20
2022-08-22T17:42:41.123Z,100053.67
2022-08-22T17:45:18.209Z,100050.72
2022-08-22T17:47:58.614Z,100055.26
2022-08-22T17:50:38.716Z,100057.08
2022-08-22T17:53:16.344Z,100062.23
2022-08-22T17:56:19.504Z,100063.27
2022-08-22T17:59:31.304Z,100070.59
2022-08-22T18:02:16.717Z,100074.04
2022-08-22T18:05:11.174Z,100083.63
2022-08-22T18:07:55.317Z,100087.97
2022-08-22T18:10:46.428Z,100085.45
2022-08-22T18:13:58.267Z,100087.69
2022-08-22T18:16:44.110Z,100083.56
2022-08-22T18:19:24.271Z,100090.27
2022-08-22T18:21:59.850Z,100092.85
2022-08-22T18:25:10.937Z,100097.92
2022-08-22T18:28:24.327Z,100094.71
2022-08-22T18:31:06.220Z,100097.26
2022-08-22T18:33:41.771Z,100099.85
2022-08-22T18:36:30.390Z,100100.48
2022-08-22T18:39:05.603Z,100102.49
2022-08-22T18:41:51.341Z,100106.36
2022-08-22T18:44:32.005Z,100107.16
2022-08-22T18:47:34.492Z,100107.65
2022-08-22T18:50:28.292Z,100106.18
2022-08-22T18:52:57.572Z,100105.64
2022-08-22T18:55:58.475Z,100106.88
2022-08-22T18:59:13.901Z,100105.52
2022-08-22T19:02:12.261Z,100105.66
2022-08-22T19:05:05.937Z,100102.94
2022-08-22T19:07:56.742Z,100101.09
2022-08-22T19:10:39.455Z,100099.73
2022-08-22T19:13:22.685Z,100094.52
2022-08-22T19:16:07.014Z,100091.51
2022-08-22T19:18:41.485Z,100094.02
2022-08-22T19:21:45.255Z,100095.84
2022-08-22T19:24:13.243Z,100097.09
2022-08-22T19:26:45.096Z,100097.17
2022-08-22T19:29:18.932Z,100097.31
2022-08-22T19:31:50.805Z,100095.91
2022-08-22T19:34:32.888Z,100094.10
2022-08-22T19:37:30.682Z,100086.73
2022-08-22T19:40:07.723Z,100085.89
2022-08-22T19:42:50.316Z,100086.41
2022-08-22T19:45:29.298Z,100085.70
2022-08-22T19:48:14.137Z,100084.45
2022-08-22T19:50:43.906Z,100086.38
2022-08-22T19:53:46.296Z,100086.81
2022-08-22T19:56:45.297Z,100090.52
2022-08-22T19:59:28.626Z,100094.75
2022-08-22T20:01:56.583Z,100097.58
2022-08-22T20:04:27.215Z,100106.73
2022-08-22T20:07:05.786Z,100107.30
2022-08-22T20:10:19.324Z,100110.36
2022-08-22T20:13:09.199Z,100109.66
2022-08-22T20:16:13.687Z,100107.16
2022-08-22T20:19:06.036Z,100108.61
2022-08-22T20:22:00.737Z,100109.90
2022-08-22T20:24:49.357Z,100103.37
2022-08-22T20:27:20.215Z,100102.08
2022-08-22T20:30:08.236Z,100097.63
2022-08-22T20:33:28.732Z,100096.33
2022-08-22T20:36:01.725Z,100089.40
2022-08-22T20:38:55.469Z,100087.48
2022-08-22T20:41:38.241Z,100088.80
2022-08-22T20:44:33.426Z,100096.52
2022-08-22T20:47:19.430Z,100102.41
2022-08-22T20:49:54.887Z,100101.82
2022-08-22T20:52:30.878Z,100106.02
2022-08-22T20:55:17.434Z,100109.55
2022-08-22T20:57:52.847Z,100102.98
2022-08-22T21:00:31.913Z,100103.44
2022-08-22T21:03:02.704Z,100097.73
2022-08-22T21:05:45.460Z,100096.86
2022-08-22T21:08:15.039Z,100091.45
2022-08-22T21:11:02.162Z,100087.62
2022-08-22T21:13:35.671Z,100088.55
2022-08-22T21:16:19.842Z,100086.19
2022-08-22T21:18:53.285Z,100089.48
2022-08-22T21:21:31.692Z,100087.70
2022-08-22T21:24:03.525Z,100089.71
2022-08-22T21:26:37.040Z,100089.48
2022-08-22T21:29:14.422Z,100089.55
2022-08-22T21:31:45.031Z,100095.05
2022-08-22T21:34:35.633Z,100093.27
2022-08-22T21:37:32.443Z,100095.61
2022-08-22T21:40:03.088Z,100096.30
2022-08-22T21:42:39.197Z,100090.42
2022-08-22T21:45:25.361Z,100086.38
2022-08-22T21:47:55.173Z,100084.55
2022-08-22T21:50:26.101Z,100086.02
2022-08-22T21:52:54.015Z,100083.69
2022-08-22T21:55:22.075Z,100086.79
2022-08-22T21:58:12.113Z,100087.04
2022-08-22T22:00:49.805Z,100085.27
2022-08-22T22:03:22.963Z,100080.42
2022-08-22T22:05:55.115Z,100074.63
2022-08-22T22:08:23.355Z,100070.14
2022-08-22T22:11:06.035Z,100068.31
2022-08-22T22:13:36.645Z,100070.66
2022-08-22T22:16:15.115Z,100068.88
2022-08-22T22:18:43.115Z,100064.30
2022-08-22T22:21:10.971Z,100060.41
2022-08-22T22:23:38.905Z,100063.50
2022-08-22T22:26:07.202Z,100061.71
2022-08-22T22:28:39.834Z,100057.09
2022-08-22T22:31:08.805Z,100052.36
2022-08-22T22:33:39.995Z,100049.61
2022-08-22T22:36:16.435Z,100049.31
2022-08-22T22:38:45.048Z,100042.38
2022-08-22T22:41:13.274Z,100040.72
2022-08-22T22:43:41.328Z,100046.44
2022-08-22T22:46:09.407Z,100039.97
2022-08-22T22:48:37.578Z,100040.29
2022-08-22T22:51:10.793Z,100041.05
2022-08-22T22:53:43.180Z,100040.07
2022-08-22T22:56:17.857Z,100046.27
2022-08-22T22:59:01.124Z,100046.08
2022-08-22T23:02:19.219Z,100047.21
2022-08-22T23:04:52.535Z,100049.30
2022-08-22T23:07:21.757Z,100051.98
2022-08-22T23:09:53.433Z,100052.56
2022-08-22T23:12:30.057Z,100056.52
2022-08-22T23:14:57.938Z,100055.59
2022-08-22T23:17:25.882Z,100060.48
2022-08-22T23:19:54.045Z,100059.45
2022-08-22T23:22:22.355Z,100058.73
2022-08-22T23:24:50.682Z,100055.18
2022-08-22T23:27:18.768Z,100058.29
2022-08-22T23:29:46.925Z,100051.83
2022-08-22T23:32:15.006Z,100051.25
2022-08-22T23:34:46.247Z,100051.54
2022-08-22T23:37:22.093Z,100049.64
2022-08-22T23:39:50.289Z,100050.22
2022-08-22T23:42:19.878Z,100053.52
2022-08-22T23:44:47.811Z,100049.30
2022-08-22T23:47:16.105Z,100051.56
2022-08-22T23:49:45.183Z,100049.91
2022-08-22T23:52:13.993Z,100052.84
2022-08-22T23:54:42.265Z,100054.58
2022-08-22T23:57:12.216Z,100057.02
2022-08-22T23:59:48.585Z,100062.13
